createdAt,value
2023-04-05T00:01:50.071Z,10.95
2023-04-05T00:06:57.561Z,13.88
2023-04-05T00:12:01.360Z,13.47
2023-04-05T00:17:05.118Z,13.75
2023-04-05T00:22:10.850Z,12.18
2023-04-05T00:27:14.561Z,17.90
2023-04-05T00:32:18.339Z,14.80
2023-04-05T00:37:24.013Z,22.30
2023-04-05T00:42:27.754Z,16.58
2023-04-05T00:47:31.569Z,19.67
2023-04-05T00:52:38.067Z,15.85
2023-04-05T00:57:42.232Z,18.33
2023-04-05T01:02:53.112Z,17.37
2023-04-05T01:08:09.057Z,16.60
2023-04-05T01:13:12.856Z,15.52
2023-04-05T01:18:16.622Z,19.37
2023-04-05T01:23:38.734Z,19.30
2023-04-05T01:28:58.267Z,18.25
2023-04-05T01:34:09.228Z,18.87
2023-04-05T01:39:15.882Z,21.12
2023-04-05T01:44:19.613Z,20.98
2023-04-05T01:49:25.499Z,18.60
2023-04-05T01:54:29.316Z,19.62
2023-04-05T01:59:33.342Z,19.15
2023-04-05T02:04:38.739Z,20.70
2023-04-05T02:09:42.536Z,20.37
2023-04-05T02:14:46.314Z,20.67
2023-04-05T02:19:53.036Z,22.30
2023-04-05T02:24:56.956Z,20.30
2023-04-05T02:30:00.630Z,17.17
2023-04-05T02:35:06.716Z,21.52
2023-04-05T02:40:14.993Z,20.15
2023-04-05T02:45:19.635Z,19.90
2023-04-05T02:50:25.396Z,21.17
2023-04-05T02:55:30.903Z,21.12
2023-04-05T03:00:34.792Z,28.92
2023-04-05T03:05:42.249Z,19.87
2023-04-05T03:10:47.503Z,19.65
2023-04-05T03:15:54.924Z,20.37
2023-04-05T03:21:01.184Z,18.30
2023-04-05T03:26:05.334Z,22.55
2023-04-05T03:31:11.915Z,23.45
2023-04-05T03:36:19.880Z,21.70
2023-04-05T03:41:26.438Z,18.55
2023-04-05T03:46:30.372Z,16.62
2023-04-05T03:51:35.563Z,19.33
2023-04-05T03:56:39.424Z,20.80
2023-04-05T04:01:44.859Z,23.08
2023-04-05T04:06:50.973Z,22.37
2023-04-05T04:11:56.800Z,26.33
2023-04-05T04:17:01.027Z,27.55
2023-04-05T04:22:10.089Z,25.45
2023-04-05T04:27:17.094Z,22.25
2023-04-05T04:32:26.776Z,21.62
2023-04-05T04:37:33.304Z,22.67
2023-04-05T04:42:39.148Z,18.98
2023-04-05T04:47:43.727Z,23.73
2023-04-05T04:52:52.241Z,16.23
2023-04-05T04:57:56.985Z,19.15
2023-04-05T05:03:00.777Z,19.70
2023-04-05T05:08:06.262Z,24.05
2023-04-05T05:13:11.148Z,21.90
2023-04-05T05:18:14.961Z,25.40
2023-04-05T05:23:21.470Z,24.45
2023-04-05T05:28:25.989Z,23.33
2023-04-05T05:33:29.709Z,25.30
2023-04-05T05:38:34.785Z,28.35
2023-04-05T05:43:38.541Z,25.95
2023-04-05T05:48:42.651Z,20.42
2023-04-05T05:53:48.219Z,19.23
2023-04-05T05:58:52.058Z,24.48
2023-04-05T06:03:56.003Z,23.65
2023-04-05T06:09:01.179Z,26.90
2023-04-05T06:14:04.952Z,27.52
2023-04-05T06:19:08.703Z,22.73
2023-04-05T06:24:13.815Z,27.67
2023-04-05T06:29:17.565Z,23.70
2023-04-05T06:34:21.312Z,25.12
2023-04-05T06:39:26.460Z,25.42
2023-04-05T06:44:30.149Z,25.02
2023-04-05T06:49:33.850Z,23.67
2023-04-05T06:54:39.994Z,20.77
2023-04-05T06:59:43.699Z,31.50
2023-04-05T07:04:48.409Z,20.23
2023-04-05T07:09:53.646Z,17.35
2023-04-05T07:14:57.366Z,19.50
2023-04-05T07:20:01.175Z,20.55
2023-04-05T07:25:09.576Z,20.15
2023-04-05T07:30:14.419Z,16.60
2023-04-05T07:35:18.241Z,15.88
2023-04-05T07:40:23.300Z,17.62
2023-04-05T07:45:27.323Z,15.20
2023-04-05T07:50:30.992Z,9.75
2023-04-05T07:55:39.071Z,13.57
2023-04-05T08:00:43.066Z,13.68
2023-04-05T08:05:46.990Z,10.93
2023-04-05T08:10:52.275Z,12.50
2023-04-05T08:15:57.298Z,15.75
2023-04-05T08:21:01.128Z,15.38
2023-04-05T08:26:07.795Z,13.48
2023-04-05T08:31:13.720Z,9.85
2023-04-05T08:36:17.694Z,14.38
2023-04-05T08:41:24.538Z,20.60
2023-04-05T08:46:28.683Z,9.27
2023-04-05T08:51:33.377Z,15.18
2023-04-05T08:56:40.280Z,11.12
2023-04-05T09:01:48.959Z,9.25
2023-04-05T09:06:53.579Z,8.70
2023-04-05T09:11:58.695Z,8.18
2023-04-05T09:17:03.981Z,8.20
2023-04-05T09:22:09.762Z,8.48
2023-04-05T09:27:16.100Z,8.77
2023-04-05T09:32:21.359Z,12.37
2023-04-05T09:37:25.338Z,9.98
2023-04-05T09:42:35.286Z,8.25
2023-04-05T09:47:39.027Z,8.77
2023-04-05T09:52:44.278Z,6.78
2023-04-05T09:57:49.421Z,10.75
2023-04-05T10:02:57.393Z,6.57
2023-04-05T10:08:02.196Z,7.57
2023-04-05T10:13:07.788Z,7.37
2023-04-05T10:18:14.911Z,7.78
2023-04-05T10:23:23.792Z,9.32
2023-04-05T10:28:32.839Z,7.37
2023-04-05T10:33:42.496Z,6.45
2023-04-05T10:39:00.012Z,7.65
2023-04-05T10:44:18.475Z,9.00
2023-04-05T10:49:35.485Z,11.60
2023-04-05T10:54:39.716Z,6.55
2023-04-05T10:59:47.691Z,7.50
2023-04-05T11:04:56.169Z,6.45
2023-04-05T11:10:02.612Z,7.18
2023-04-05T11:15:33.080Z,5.97
2023-04-05T11:20:44.737Z,8.45
2023-04-05T11:25:51.940Z,7.40
2023-04-05T11:30:59.085Z,6.30
2023-04-05T11:36:03.957Z,7.95
2023-04-05T11:41:13.192Z,7.90
2023-04-05T11:46:19.153Z,7.75
2023-04-05T11:51:25.497Z,7.57
2023-04-05T11:56:29.223Z,7.82
2023-04-05T12:01:34.322Z,7.62
2023-04-05T12:06:38.073Z,6.07
2023-04-05T12:11:42.001Z,6.35
2023-04-05T12:16:51.285Z,7.62
2023-04-05T12:21:55.356Z,6.45
2023-04-05T12:27:00.678Z,9.38
2023-04-05T12:32:06.680Z,7.30
2023-04-05T12:37:11.539Z,7.93
2023-04-05T12:42:18.788Z,7.25
2023-04-05T12:47:23.996Z,11.35
2023-04-05T12:52:28.472Z,7.37
2023-04-05T12:57:32.967Z,7.65
2023-04-05T13:02:38.138Z,6.25
2023-04-05T13:07:42.043Z,7.18
2023-04-05T13:12:46.567Z,6.90
2023-04-05T13:17:53.348Z,6.82
2023-04-05T13:22:57.220Z,8.63
2023-04-05T13:28:00.917Z,9.07
2023-04-05T13:33:06.095Z,7.32
2023-04-05T13:38:09.954Z,8.85
2023-04-05T13:43:14.472Z,6.57
2023-04-05T13:48:19.511Z,7.80
2023-04-05T13:53:23.472Z,5.78
2023-04-05T13:58:27.186Z,6.97
2023-04-05T14:03:32.460Z,7.05
2023-04-05T14:08:36.249Z,7.93
2023-04-05T14:13:40.411Z,6.80
2023-04-05T14:18:45.576Z,8.30
2023-04-05T14:23:50.487Z,8.07
2023-04-05T14:28:54.707Z,7.47
2023-04-05T14:34:00.772Z,6.70
2023-04-05T14:39:04.830Z,7.00
2023-04-05T14:44:08.650Z,6.62
2023-04-05T14:49:13.809Z,7.80
2023-04-05T14:54:18.515Z,7.40
2023-04-05T14:59:22.443Z,6.30
2023-04-05T15:04:27.790Z,9.15
2023-04-05T15:09:31.798Z,9.70
2023-04-05T15:14:35.611Z,9.57
2023-04-05T15:19:40.964Z,6.28
2023-04-05T15:24:44.856Z,7.70
2023-04-05T15:29:48.699Z,11.07
2023-04-05T15:34:53.927Z,8.38
2023-04-05T15:39:57.932Z,9.95
2023-04-05T15:45:01.912Z,8.68
2023-04-05T15:50:08.198Z,8.18
2023-04-05T15:55:12.036Z,8.25
2023-04-05T16:00:16.832Z,7.32
2023-04-05T16:05:22.236Z,7.97
2023-04-05T16:10:26.454Z,7.90
2023-04-05T16:15:30.566Z,9.13
2023-04-05T16:20:36.301Z,9.50
2023-04-05T16:25:40.176Z,9.40
2023-04-05T16:30:47.132Z,7.80
2023-04-05T16:40:56.880Z,8.07
2023-04-05T16:46:00.931Z,12.37
2023-04-05T16:51:07.239Z,10.25
2023-04-05T16:56:11.318Z,9.75
2023-04-05T17:01:15.773Z,11.00
2023-04-05T17:06:20.960Z,9.55
2023-04-05T17:11:24.849Z,10.73
2023-04-05T17:16:28.813Z,16.45
2023-04-05T17:21:35.388Z,11.45
2023-04-05T17:26:39.212Z,10.05
2023-04-05T17:31:44.406Z,11.77
2023-04-05T17:36:49.787Z,14.20
2023-04-05T17:41:55.898Z,11.77
2023-04-05T17:47:08.559Z,9.43
2023-04-05T17:52:14.905Z,14.85
2023-04-05T17:57:21.080Z,13.40
2023-04-05T18:02:24.979Z,12.77
2023-04-05T18:07:30.409Z,15.57
2023-04-05T18:12:34.324Z,12.32
2023-04-05T18:17:38.410Z,13.45
2023-04-05T18:22:43.807Z,13.88
2023-04-05T18:27:47.721Z,17.77
2023-04-05T18:32:51.932Z,13.02
2023-04-05T18:37:57.127Z,15.18
2023-04-05T18:43:01.151Z,16.98
2023-04-05T18:48:05.527Z,15.95
2023-04-05T18:53:11.023Z,17.52
2023-04-05T18:58:14.873Z,15.02
2023-04-05T19:03:18.821Z,17.75
2023-04-05T19:08:26.650Z,15.88
2023-04-05T19:13:30.480Z,17.87
2023-04-05T19:18:34.343Z,19.87
2023-04-05T19:23:39.760Z,21.48
2023-04-05T19:28:43.626Z,20.30
2023-04-05T19:33:47.499Z,24.00
2023-04-05T19:38:52.716Z,18.62
2023-04-05T19:43:57.298Z,17.75
2023-04-05T19:49:11.008Z,17.08
2023-04-05T19:54:19.336Z,16.67
2023-04-05T19:59:30.030Z,27.52
2023-04-05T20:04:38.905Z,18.48
2023-04-05T20:09:45.098Z,19.95
2023-04-05T20:14:49.109Z,19.62
2023-04-05T20:19:57.503Z,21.20
2023-04-05T20:30:11.721Z,23.27
2023-04-05T20:35:31.983Z,21.85
2023-04-05T20:40:37.158Z,21.48
2023-04-05T20:45:41.925Z,28.92
2023-04-05T20:50:45.844Z,23.40
2023-04-05T20:55:51.086Z,21.80
2023-04-05T21:00:55.059Z,27.13
2023-04-05T21:05:59.835Z,22.37
2023-04-05T21:11:05.999Z,24.67
2023-04-05T21:16:10.356Z,29.20
2023-04-05T21:21:14.195Z,25.90
2023-04-05T21:26:19.326Z,31.62
2023-04-05T21:31:23.187Z,21.92
2023-04-05T21:36:27.201Z,26.00
2023-04-05T21:41:32.342Z,25.20
2023-04-05T21:46:36.458Z,24.60
2023-04-05T21:51:40.877Z,24.33
2023-04-05T21:56:46.163Z,24.00
2023-04-05T22:01:50.013Z,26.10
2023-04-05T22:06:53.909Z,24.42
2023-04-05T22:11:59.748Z,23.02
2023-04-05T22:17:03.982Z,22.70
2023-04-05T22:22:07.814Z,24.80
2023-04-05T22:27:13.384Z,28.95
2023-04-05T22:32:17.184Z,19.70
2023-04-05T22:37:21.223Z,19.98
2023-04-05T22:42:26.391Z,15.88
2023-04-05T22:47:30.237Z,20.42
2023-04-05T22:52:34.093Z,17.83
2023-04-05T22:57:39.500Z,19.50
2023-04-05T23:02:43.600Z,18.23
2023-04-05T23:07:47.466Z,18.73
2023-04-05T23:12:52.643Z,21.52
2023-04-05T23:17:56.685Z,18.15
2023-04-05T23:23:01.561Z,19.20
2023-04-05T23:28:07.272Z,17.73
2023-04-05T23:33:13.105Z,14.95
2023-04-05T23:38:17.680Z,21.98
2023-04-05T23:43:22.857Z,22.62
2023-04-05T23:48:27.256Z,25.48
2023-04-05T23:53:31.459Z,15.68
2023-04-05T23:58:36.754Z,19.35
